Terminal Aerodrome Forecast
Issued by NWS

Current Version | Previous Version | Text Only | Print | Product List | Glossary Off
Versions: 1 2 3 4 5 6 7 8 9 10 11 12 13 14 15 16 17 18 19 20 21 22 23

000
FTUS41 KRLX 221400 AAA
TAFCKB
TAF AMD
KCKB 221426Z 2214/2312 22005KT P6SM OVC030
     FM221500 24010KT P6SM -SHRA OVC045
     FM221700 25011G19KT 6SM SHRA OVC045
     FM222100 30014G22KT P6SM BKN045
     FM230700 28010G16KT P6SM BKN035=

USA.gov is the U.S. government's official web portal to all federal, state and local government web resources and services.